DAAE

Soummam Airport

Béjaïa, Algeria
METAR DAAE 250000Z 19003KT 8000 NSC 17/16 Q1013
Observed Flight Rules
Apr-25 @ 00:00 UTC (40 minutes ago) Marginal Visual Flight Rules
Wind Visibility Clouds
190° at 3 knots 7,998 meters
  • Clear skies
Temperatures Readings
Current 17°C / 63°F
Dewpoint 16°C / 61°F
Humidity 94%
Altimeter 29.91" Hg
Pressure 1013 hPa
Elevation 2
METAR DAAE 250000Z 19003KT 8000 NSC 17/16 Q1013
Observed Flight Rules
Apr-25 @ 00:00 UTC
(40 minutes ago)
MVFR
Wind Visibility
190° at 3 knots 7,998 meters
Clouds
  • Clear skies
Temperature Dewpoint
17°C / 63°F 16°C / 61°F
Humidity Altimeter Pressure
94% 29.91" Hg 1013 hPa